Aérodrome :
LOGIN :

S'inscrire | Disclaimer

   EN    FR    IT 

 










Légende :    VFR   VFR Marginal   IFR   IFR Intensif   IFR Très Intensif
Visi : 
Plafond : 
>= 8 km
>= 3000ft
5 à 8 km
1000 à 3000 ft
1500m à 5 km
500 à 1000 ft
800 à 1500m
200 à 500 ft
< 800m
< 200 ft
Symboles :   Orages  Brouillard  Fortes neiges  Fortes précipitations  Vent > 20 kt
SIGMETs :   Divers  Orages  Givrage  Turbulence  Onde Orograph.  Cendres Volcan.







- Altitude de l'aérodrome : 526 ft
- Code IATA : LTN
- Voir les cartes d'approche


EGGW - London Luton

DERNIER METAR :
  • 251420Z AUTO 03006KT 6000 -RA NCD 17/15 Q1020

METARs EXPIRÉS :
  • 251350Z AUTO 02004KT 330V050 8000 -RA OVC049 16/14 Q1020 RERA
  • 251320Z AUTO 10004KT 6000 -RA BKN045 16/15 Q1020
  • 251250Z AUTO 07004KT 040V100 4600 HZ NCD 16/15 Q1020
  • 251220Z AUTO 06006KT 030V090 5000 HZ FEW044 16/15 Q1020
  • 251150Z AUTO 05005KT 4300 HZ BKN043 16/15 Q1020

TAF AMD TAF EGGW
Valide du 25 à 13h jusqu'au 26 à 12h UTC


251337Z 2513/2612 05006KT 4000 RA BR SCT045
BECMG 2513/2515 7000 NSW
TEMPO 2514/2524 9999
BECMG 2600/2603 3000 BR BKN004
BECMG 2603/2606 0700 FG BKN000
TEMPO 2603/2607 0300
BECMG 2607/2609 4000 BR BKN004
BECMG 2609/2611 6000 NSW FEW008 SCT030
PROB30
TEMPO 2611/2612 9999
ATIS : +44 1582 395 204
Pas de NOTAMs connus pour ce terrain.



MET'MAP, la Météo Aéronautique d'un coup d'oeil ! - Copyright ORBIFLY Décembre 2007 - Disclaimer

ORBIFLY MET'MAP TEAM :

Programmation & Développement : Alexandra Zaïnal
Conception & Développement : Baudouin d'Aumeries
Co-Programmation & Développement : Marc-Olivier Méhu
Soutien technique & logistique : Manuel Goepfert

Contact : metmap@orbifly.com




SOURCES & CREDITS :

   NOAA